AEZ23R LIEE-LIRF
Flight info
| Callsign | AEZ23R |
|---|---|
| Flight time | 0h 40m |
| Altitude | 30000 |
| Route | KOVAS Q125 DEXUL DCT ABIDU DCT TINTO DCT VALMA |
| Aircraft | B738/M-SDE2E3FGHIRWXY/LB1 |
Departure
| Time | 2026-05-09 07:43 |
|---|---|
| Airport | Cagliari Elmas Airport (LIEE) |
Arrival
| Time | 2026-05-09 08:23 |
|---|---|
| Airport | Rome–Fiumicino Leonardo da Vinci International Airport (LIRF) |
| Time | Latitude | Longitude | Altitude | Speed | Heading |
|---|---|---|---|---|---|
| 2026-05-09 07:34 | 39.25262 | 9.05981 | 14 ft | 0 kts | 322° |
| 2026-05-09 07:37 | 39.25258 | 9.05984 | 14 ft | 3 kts | 322° |
| 2026-05-09 07:38 | 39.25237 | 9.06006 | 14 ft | 4 kts | 322° |
| 2026-05-09 07:38 | 39.25221 | 9.06022 | 17 ft | 4 kts | 309° |
| 2026-05-09 07:38 | 39.25216 | 9.06045 | 15 ft | 4 kts | 233° |
| 2026-05-09 07:38 | 39.25230 | 9.06066 | 15 ft | 1 kts | 232° |
| 2026-05-09 07:39 | 39.25230 | 9.06067 | 15 ft | 0 kts | 232° |
| 2026-05-09 07:40 | 39.25198 | 9.06016 | 14 ft | 16 kts | 230° |
| 2026-05-09 07:40 | 39.25109 | 9.05944 | 14 ft | 17 kts | 152° |
| 2026-05-09 07:40 | 39.25023 | 9.06060 | 14 ft | 20 kts | 134° |
| 2026-05-09 07:41 | 39.24913 | 9.06191 | 14 ft | 23 kts | 141° |
| 2026-05-09 07:41 | 39.24770 | 9.06317 | 15 ft | 27 kts | 148° |
| 2026-05-09 07:41 | 39.24601 | 9.06452 | 14 ft | 30 kts | 148° |
| 2026-05-09 07:41 | 39.24417 | 9.06583 | 15 ft | 31 kts | 170° |
| 2026-05-09 07:42 | 39.24240 | 9.06496 | 16 ft | 17 kts | 256° |
| 2026-05-09 07:42 | 39.24370 | 9.06319 | 15 ft | 57 kts | 318° |
| 2026-05-09 07:42 | 39.24847 | 9.05775 | 16 ft | 124 kts | 317° |
| 2026-05-09 07:42 | 39.25589 | 9.04892 | 164 ft | 161 kts | 315° |
| 2026-05-09 07:43 | 39.26407 | 9.03951 | 948 ft | 153 kts | 321° |
| 2026-05-09 07:43 | 39.27382 | 9.03304 | 1383 ft | 170 kts | 354° |
| 2026-05-09 07:43 | 39.28574 | 9.03386 | 1972 ft | 174 kts | 12° |
| 2026-05-09 07:43 | 39.29839 | 9.03610 | 2412 ft | 196 kts | 12° |
| 2026-05-09 07:44 | 39.31313 | 9.03817 | 2691 ft | 222 kts | 9° |
| 2026-05-09 07:44 | 39.32860 | 9.03978 | 3138 ft | 230 kts | 7° |
| 2026-05-09 07:44 | 39.34477 | 9.04110 | 3693 ft | 237 kts | 6° |
| 2026-05-09 07:44 | 39.36130 | 9.04221 | 4452 ft | 237 kts | 4° |
| 2026-05-09 07:45 | 39.37243 | 9.04285 | 5001 ft | 237 kts | 2° |
| 2026-05-09 07:45 | 39.39444 | 9.04396 | 5976 ft | 241 kts | 1° |
| 2026-05-09 07:45 | 39.41137 | 9.04472 | 6701 ft | 244 kts | 0° |
| 2026-05-09 07:45 | 39.42285 | 9.04522 | 7229 ft | 244 kts | 359° |
| 2026-05-09 07:46 | 39.43978 | 9.04595 | 8016 ft | 244 kts | 359° |
| 2026-05-09 07:46 | 39.45668 | 9.04667 | 8844 ft | 244 kts | 358° |
| 2026-05-09 07:46 | 39.47413 | 9.04818 | 9371 ft | 263 kts | 1° |
| 2026-05-09 07:46 | 39.49304 | 9.05061 | 9648 ft | 287 kts | 2° |
| 2026-05-09 07:47 | 39.51321 | 9.05341 | 10286 ft | 297 kts | 2° |
| 2026-05-09 07:47 | 39.53493 | 9.05637 | 10497 ft | 324 kts | 2° |
| 2026-05-09 07:47 | 39.55823 | 9.05949 | 10697 ft | 347 kts | 2° |
| 2026-05-09 07:47 | 39.58243 | 9.06270 | 11143 ft | 360 kts | 2° |
| 2026-05-09 07:48 | 39.60753 | 9.06602 | 11811 ft | 365 kts | 2° |
| 2026-05-09 07:48 | 39.63281 | 9.06934 | 12571 ft | 368 kts | 2° |
| 2026-05-09 07:48 | 39.65842 | 9.07357 | 13322 ft | 374 kts | 8° |
| 2026-05-09 07:48 | 39.68397 | 9.08148 | 14062 ft | 380 kts | 12° |
| 2026-05-09 07:49 | 39.70959 | 9.09078 | 14789 ft | 384 kts | 13° |
| 2026-05-09 07:49 | 39.73533 | 9.10019 | 15534 ft | 386 kts | 12° |
| 2026-05-09 07:49 | 39.76144 | 9.10937 | 16248 ft | 391 kts | 12° |
| 2026-05-09 07:49 | 39.78792 | 9.11835 | 16942 ft | 395 kts | 11° |
| 2026-05-09 07:50 | 39.81472 | 9.12730 | 17635 ft | 400 kts | 11° |
| 2026-05-09 07:50 | 39.84163 | 9.13708 | 18319 ft | 407 kts | 17° |
| 2026-05-09 07:50 | 39.86762 | 9.15273 | 18901 ft | 416 kts | 27° |
| 2026-05-09 07:50 | 39.89155 | 9.17444 | 19466 ft | 423 kts | 36° |
| 2026-05-09 07:51 | 39.91451 | 9.19887 | 20016 ft | 429 kts | 37° |
| 2026-05-09 07:51 | 39.93753 | 9.22399 | 20538 ft | 434 kts | 37° |
| 2026-05-09 07:51 | 39.96076 | 9.24949 | 21108 ft | 439 kts | 37° |
| 2026-05-09 07:51 | 39.98428 | 9.27512 | 21635 ft | 444 kts | 37° |
| 2026-05-09 07:52 | 40.00816 | 9.30100 | 22205 ft | 447 kts | 37° |
| 2026-05-09 07:52 | 40.03218 | 9.32688 | 22766 ft | 451 kts | 37° |
| 2026-05-09 07:52 | 40.05656 | 9.35309 | 23247 ft | 456 kts | 37° |
| 2026-05-09 07:52 | 40.08118 | 9.37950 | 23715 ft | 461 kts | 36° |
| 2026-05-09 07:53 | 40.10605 | 9.40617 | 24166 ft | 464 kts | 37° |
| 2026-05-09 07:53 | 40.13111 | 9.43308 | 24648 ft | 466 kts | 36° |
| 2026-05-09 07:53 | 40.15622 | 9.46007 | 25083 ft | 470 kts | 36° |
| 2026-05-09 07:53 | 40.18149 | 9.48726 | 25511 ft | 471 kts | 36° |
| 2026-05-09 07:54 | 40.20685 | 9.51459 | 25935 ft | 474 kts | 36° |
| 2026-05-09 07:54 | 40.23241 | 9.54215 | 26310 ft | 478 kts | 36° |
| 2026-05-09 07:54 | 40.25813 | 9.56992 | 26661 ft | 482 kts | 36° |
| 2026-05-09 07:54 | 40.28408 | 9.59795 | 27068 ft | 485 kts | 36° |
| 2026-05-09 07:55 | 40.31012 | 9.62612 | 27471 ft | 487 kts | 36° |
| 2026-05-09 07:55 | 40.33631 | 9.65449 | 27817 ft | 490 kts | 36° |
| 2026-05-09 07:55 | 40.36270 | 9.68311 | 28166 ft | 493 kts | 36° |
| 2026-05-09 07:55 | 40.38922 | 9.71189 | 28510 ft | 496 kts | 36° |
| 2026-05-09 07:56 | 40.41586 | 9.74083 | 28861 ft | 499 kts | 36° |
| 2026-05-09 07:56 | 40.44265 | 9.76997 | 29206 ft | 501 kts | 36° |
| 2026-05-09 07:56 | 40.46951 | 9.79921 | 29612 ft | 502 kts | 36° |
| 2026-05-09 07:56 | 40.49635 | 9.82849 | 30096 ft | 502 kts | 36° |
| 2026-05-09 07:57 | 40.52301 | 9.85757 | 30083 ft | 505 kts | 36° |
| 2026-05-09 07:57 | 40.57675 | 9.91634 | 30085 ft | 499 kts | 36° |
| 2026-05-09 07:58 | 40.62997 | 9.97464 | 30095 ft | 498 kts | 35° |
| 2026-05-09 07:58 | 40.68330 | 10.03314 | 30101 ft | 499 kts | 36° |
| 2026-05-09 07:59 | 40.73671 | 10.09187 | 30096 ft | 501 kts | 36° |
| 2026-05-09 07:59 | 40.79020 | 10.15083 | 30089 ft | 501 kts | 36° |
| 2026-05-09 08:00 | 40.84364 | 10.20986 | 30085 ft | 501 kts | 36° |
| 2026-05-09 08:00 | 40.89697 | 10.26890 | 30107 ft | 500 kts | 36° |
| 2026-05-09 08:01 | 40.95016 | 10.32787 | 30097 ft | 499 kts | 36° |
| 2026-05-09 08:01 | 41.00264 | 10.38797 | 30087 ft | 500 kts | 40° |
| 2026-05-09 08:02 | 41.05055 | 10.45499 | 30093 ft | 501 kts | 44° |
| 2026-05-09 08:02 | 41.09735 | 10.52335 | 30107 ft | 500 kts | 44° |
| 2026-05-09 08:03 | 41.14450 | 10.59115 | 30084 ft | 500 kts | 43° |
| 2026-05-09 08:03 | 41.19186 | 10.65849 | 30087 ft | 499 kts | 43° |
| 2026-05-09 08:04 | 41.23918 | 10.72573 | 30071 ft | 498 kts | 43° |
| 2026-05-09 08:04 | 41.26297 | 10.75961 | 29261 ft | 503 kts | 43° |
| 2026-05-09 08:04 | 41.28675 | 10.79356 | 28462 ft | 499 kts | 43° |
| 2026-05-09 08:04 | 41.31039 | 10.82737 | 27534 ft | 499 kts | 43° |
| 2026-05-09 08:05 | 41.33396 | 10.86111 | 26671 ft | 497 kts | 43° |
| 2026-05-09 08:05 | 41.35734 | 10.89464 | 26038 ft | 490 kts | 43° |
| 2026-05-09 08:05 | 41.38046 | 10.92762 | 25388 ft | 484 kts | 42° |
| 2026-05-09 08:05 | 41.40351 | 10.95936 | 25150 ft | 469 kts | 41° |
| 2026-05-09 08:06 | 41.42635 | 10.99013 | 24937 ft | 469 kts | 41° |
| 2026-05-09 08:06 | 41.44968 | 11.02126 | 24708 ft | 479 kts | 41° |
| 2026-05-09 08:06 | 41.47296 | 11.05237 | 24489 ft | 480 kts | 41° |
| 2026-05-09 08:06 | 41.49636 | 11.08385 | 24258 ft | 476 kts | 41° |
| 2026-05-09 08:07 | 41.51985 | 11.11561 | 24022 ft | 474 kts | 41° |
| 2026-05-09 08:07 | 41.54290 | 11.14690 | 23794 ft | 471 kts | 41° |
| 2026-05-09 08:07 | 41.56572 | 11.17796 | 23119 ft | 466 kts | 41° |
| 2026-05-09 08:07 | 41.58822 | 11.20864 | 22487 ft | 459 kts | 41° |
| 2026-05-09 08:08 | 41.61045 | 11.23897 | 21827 ft | 454 kts | 42° |
| 2026-05-09 08:08 | 41.63239 | 11.26893 | 21186 ft | 448 kts | 42° |
| 2026-05-09 08:08 | 41.65406 | 11.29853 | 20576 ft | 443 kts | 42° |
| 2026-05-09 08:08 | 41.67553 | 11.32789 | 19938 ft | 439 kts | 41° |
| 2026-05-09 08:09 | 41.69674 | 11.35691 | 19313 ft | 434 kts | 42° |
| 2026-05-09 08:09 | 41.71774 | 11.38568 | 18699 ft | 430 kts | 42° |
| 2026-05-09 08:09 | 41.73826 | 11.41380 | 18020 ft | 426 kts | 42° |
| 2026-05-09 08:09 | 41.75885 | 11.44205 | 17346 ft | 422 kts | 42° |
| 2026-05-09 08:10 | 41.77921 | 11.47003 | 16712 ft | 417 kts | 42° |
| 2026-05-09 08:10 | 41.79930 | 11.49765 | 16098 ft | 412 kts | 43° |
| 2026-05-09 08:10 | 41.81914 | 11.52496 | 15500 ft | 407 kts | 43° |
| 2026-05-09 08:10 | 41.83882 | 11.55208 | 14915 ft | 403 kts | 43° |
| 2026-05-09 08:11 | 41.85826 | 11.57888 | 14321 ft | 399 kts | 43° |
| 2026-05-09 08:11 | 41.87748 | 11.60540 | 13724 ft | 395 kts | 43° |
| 2026-05-09 08:11 | 41.89649 | 11.63166 | 13086 ft | 391 kts | 44° |
| 2026-05-09 08:11 | 41.91530 | 11.65766 | 12496 ft | 386 kts | 44° |
| 2026-05-09 08:12 | 41.95118 | 11.70736 | 12204 ft | 356 kts | 44° |
| 2026-05-09 08:12 | 41.96809 | 11.73080 | 12064 ft | 343 kts | 44° |
| 2026-05-09 08:12 | 41.98437 | 11.75338 | 11930 ft | 331 kts | 44° |
| 2026-05-09 08:13 | 41.99844 | 11.77688 | 11733 ft | 316 kts | 55° |
| 2026-05-09 08:13 | 42.01014 | 11.80217 | 10875 ft | 322 kts | 58° |
| 2026-05-09 08:13 | 42.02164 | 11.82833 | 9905 ft | 330 kts | 59° |
| 2026-05-09 08:13 | 42.03345 | 11.85503 | 8858 ft | 334 kts | 59° |
| 2026-05-09 08:14 | 42.04554 | 11.88193 | 7872 ft | 336 kts | 59° |
| 2026-05-09 08:14 | 42.05779 | 11.90877 | 6929 ft | 336 kts | 59° |
| 2026-05-09 08:14 | 42.07005 | 11.93544 | 5957 ft | 335 kts | 58° |
| 2026-05-09 08:14 | 42.08218 | 11.96174 | 5411 ft | 321 kts | 58° |
| 2026-05-09 08:15 | 42.09349 | 11.98633 | 5177 ft | 300 kts | 58° |
| 2026-05-09 08:15 | 42.10354 | 12.01043 | 4592 ft | 293 kts | 70° |
| 2026-05-09 08:15 | 42.10580 | 12.03644 | 4466 ft | 276 kts | 96° |
| 2026-05-09 08:15 | 42.10101 | 12.06056 | 4335 ft | 260 kts | 113° |
| 2026-05-09 08:16 | 42.09137 | 12.08033 | 4228 ft | 248 kts | 129° |
| 2026-05-09 08:16 | 42.08000 | 12.09726 | 4160 ft | 240 kts | 132° |
| 2026-05-09 08:16 | 42.06884 | 12.11327 | 4096 ft | 229 kts | 131° |
| 2026-05-09 08:16 | 42.05816 | 12.12858 | 3969 ft | 221 kts | 131° |
| 2026-05-09 08:17 | 42.04794 | 12.14340 | 3859 ft | 209 kts | 130° |
| 2026-05-09 08:17 | 42.03838 | 12.15730 | 3774 ft | 197 kts | 131° |
| 2026-05-09 08:17 | 42.02918 | 12.17074 | 3530 ft | 194 kts | 130° |
| 2026-05-09 08:17 | 42.02000 | 12.18403 | 3229 ft | 194 kts | 135° |
| 2026-05-09 08:18 | 42.00835 | 12.19291 | 2752 ft | 195 kts | 162° |
| 2026-05-09 08:18 | 41.99550 | 12.19831 | 2575 ft | 194 kts | 159° |
| 2026-05-09 08:18 | 41.98260 | 12.20421 | 2531 ft | 199 kts | 160° |
| 2026-05-09 08:18 | 41.96932 | 12.20993 | 2455 ft | 199 kts | 161° |
| 2026-05-09 08:19 | 41.95607 | 12.21508 | 2293 ft | 199 kts | 161° |
| 2026-05-09 08:19 | 41.94294 | 12.22081 | 2017 ft | 198 kts | 160° |
| 2026-05-09 08:19 | 41.92999 | 12.22636 | 1743 ft | 190 kts | 161° |
| 2026-05-09 08:19 | 41.91789 | 12.23143 | 1518 ft | 176 kts | 161° |
| 2026-05-09 08:20 | 41.90675 | 12.23607 | 1306 ft | 161 kts | 161° |
| 2026-05-09 08:20 | 41.89656 | 12.24040 | 1096 ft | 146 kts | 159° |
| 2026-05-09 08:20 | 41.88691 | 12.24458 | 879 ft | 144 kts | 159° |
| 2026-05-09 08:20 | 41.87752 | 12.24842 | 735 ft | 142 kts | 161° |
| 2026-05-09 08:21 | 41.86787 | 12.25248 | 566 ft | 148 kts | 161° |
| 2026-05-09 08:21 | 41.85797 | 12.25656 | 351 ft | 149 kts | 162° |
| 2026-05-09 08:21 | 41.84808 | 12.26055 | 126 ft | 149 kts | 160° |
| 2026-05-09 08:21 | 41.83830 | 12.26473 | 18 ft | 141 kts | 160° |
| 2026-05-09 08:22 | 41.83066 | 12.26793 | 11 ft | 83 kts | 163° |
| 2026-05-09 08:22 | 41.82539 | 12.27012 | 10 ft | 75 kts | 163° |
| 2026-05-09 08:22 | 41.82100 | 12.27145 | 12 ft | 56 kts | 181° |
| 2026-05-09 08:22 | 41.81733 | 12.27048 | 11 ft | 52 kts | 185° |
| 2026-05-09 08:23 | 41.81451 | 12.27144 | 11 ft | 41 kts | 162° |
| 2026-05-09 08:23 | 41.81177 | 12.27262 | 13 ft | 41 kts | 161° |
| 2026-05-09 08:23 | 41.80897 | 12.27348 | 11 ft | 43 kts | 182° |
| 2026-05-09 08:23 | 41.80641 | 12.27195 | 12 ft | 41 kts | 246° |
| 2026-05-09 08:24 | 41.80547 | 12.26839 | 12 ft | 40 kts | 250° |
| 2026-05-09 08:24 | 41.80453 | 12.26500 | 14 ft | 34 kts | 250° |
| 2026-05-09 08:24 | 41.80324 | 12.26381 | 15 ft | 25 kts | 163° |
| 2026-05-09 08:24 | 41.80176 | 12.26415 | 14 ft | 17 kts | 159° |
| 2026-05-09 08:25 | 41.80106 | 12.26531 | 13 ft | 19 kts | 77° |
| 2026-05-09 08:25 | 41.80071 | 12.26588 | 13 ft | 5 kts | 234° |
| 2026-05-09 08:25 | 41.80057 | 12.26548 | 13 ft | 2 kts | 250° |